sensor_id;sensor_type;location;lat;lon;timestamp;pressure;altitude;pressure_sealevel;temperature;humidity
40954;BME280;26686;50.130;8.710;2023-12-20T00:01:07;100114.25;;;5.54;100.00
40954;BME280;26686;50.130;8.710;2023-12-20T00:06:09;100113.97;;;5.59;100.00
40954;BME280;26686;50.130;8.710;2023-12-20T00:11:11;100090.09;;;5.46;100.00
40954;BME280;26686;50.130;8.710;2023-12-20T00:16:12;100114.72;;;5.61;100.00
40954;BME280;26686;50.130;8.710;2023-12-20T00:21:14;100100.56;;;5.62;100.00
40954;BME280;26686;50.130;8.710;2023-12-20T00:26:15;100100.09;;;5.55;100.00
40954;BME280;26686;50.130;8.710;2023-12-20T00:31:17;100097.53;;;5.54;100.00
40954;BME280;26686;50.130;8.710;2023-12-20T00:36:21;100086.78;;;5.57;100.00
40954;BME280;26686;50.130;8.710;2023-12-20T00:41:24;100091.97;;;5.58;100.00
40954;BME280;26686;50.130;8.710;2023-12-20T00:46:27;100089.81;;;5.51;100.00
40954;BME280;26686;50.130;8.710;2023-12-20T00:51:28;100088.88;;;5.52;100.00
40954;BME280;26686;50.130;8.710;2023-12-20T00:56:30;100094.25;;;5.50;100.00
40954;BME280;26686;50.130;8.710;2023-12-20T01:01:31;100075.97;;;5.47;100.00
40954;BME280;26686;50.130;8.710;2023-12-20T01:06:34;100073.88;;;5.52;100.00
40954;BME280;26686;50.130;8.710;2023-12-20T01:11:35;100070.09;;;5.56;100.00
40954;BME280;26686;50.130;8.710;2023-12-20T01:16:37;100071.63;;;5.60;100.00
40954;BME280;26686;50.130;8.710;2023-12-20T01:21:42;100071.44;;;5.63;100.00
40954;BME280;26686;50.130;8.710;2023-12-20T01:26:46;100069.53;;;5.65;100.00
40954;BME280;26686;50.130;8.710;2023-12-20T01:31:47;100061.59;;;5.65;100.00
40954;BME280;26686;50.130;8.710;2023-12-20T01:36:49;100070.00;;;5.72;100.00
40954;BME280;26686;50.130;8.710;2023-12-20T01:41:50;100068.09;;;5.74;100.00
40954;BME280;26686;50.130;8.710;2023-12-20T01:46:52;100068.31;;;5.71;100.00
40954;BME280;26686;50.130;8.710;2023-12-20T01:51:54;100067.47;;;5.71;100.00
40954;BME280;26686;50.130;8.710;2023-12-20T01:56:55;100081.22;;;5.76;100.00
40954;BME280;26686;50.130;8.710;2023-12-20T02:01:57;100085.19;;;5.69;100.00
40954;BME280;26686;50.130;8.710;2023-12-20T02:06:59;100080.56;;;5.58;100.00
40954;BME280;26686;50.130;8.710;2023-12-20T02:12:01;100048.44;;;5.51;100.00
40954;BME280;26686;50.130;8.710;2023-12-20T02:17:03;100062.44;;;5.80;100.00
40954;BME280;26686;50.130;8.710;2023-12-20T02:22:06;100076.47;;;5.81;100.00
40954;BME280;26686;50.130;8.710;2023-12-20T02:27:08;100058.19;;;5.78;100.00
40954;BME280;26686;50.130;8.710;2023-12-20T02:32:09;100072.56;;;5.74;100.00
40954;BME280;26686;50.130;8.710;2023-12-20T02:37:11;100046.34;;;5.71;100.00
40954;BME280;26686;50.130;8.710;2023-12-20T02:42:12;100053.09;;;5.75;100.00
40954;BME280;26686;50.130;8.710;2023-12-20T02:47:14;100062.38;;;5.68;100.00
40954;BME280;26686;50.130;8.710;2023-12-20T02:52:15;100062.19;;;5.71;100.00
40954;BME280;26686;50.130;8.710;2023-12-20T02:57:17;100066.09;;;5.78;100.00
40954;BME280;26686;50.130;8.710;2023-12-20T03:02:19;100072.56;;;5.74;100.00
40954;BME280;26686;50.130;8.710;2023-12-20T03:07:21;100082.72;;;5.80;100.00
40954;BME280;26686;50.130;8.710;2023-12-20T03:12:22;100077.44;;;5.80;100.00
40954;BME280;26686;50.130;8.710;2023-12-20T03:17:24;100062.63;;;5.77;100.00
40954;BME280;26686;50.130;8.710;2023-12-20T03:22:26;100067.16;;;5.75;100.00
40954;BME280;26686;50.130;8.710;2023-12-20T03:27:27;100066.88;;;5.80;100.00
40954;BME280;26686;50.130;8.710;2023-12-20T03:32:29;100072.91;;;5.82;100.00
40954;BME280;26686;50.130;8.710;2023-12-20T03:37:31;100092.06;;;5.86;100.00
40954;BME280;26686;50.130;8.710;2023-12-20T03:42:32;100089.13;;;5.90;100.00
40954;BME280;26686;50.130;8.710;2023-12-20T03:47:34;100098.34;;;5.97;100.00
40954;BME280;26686;50.130;8.710;2023-12-20T03:52:37;100103.09;;;6.07;100.00
40954;BME280;26686;50.130;8.710;2023-12-20T03:57:39;100109.31;;;6.06;100.00
40954;BME280;26686;50.130;8.710;2023-12-20T04:02:41;100089.56;;;6.11;100.00
40954;BME280;26686;50.130;8.710;2023-12-20T04:07:43;100104.84;;;6.21;100.00
40954;BME280;26686;50.130;8.710;2023-12-20T04:12:45;100112.88;;;6.19;100.00
40954;BME280;26686;50.130;8.710;2023-12-20T04:17:47;100101.34;;;6.20;100.00
40954;BME280;26686;50.130;8.710;2023-12-20T04:22:49;100103.03;;;6.21;100.00
40954;BME280;26686;50.130;8.710;2023-12-20T04:27:50;100122.09;;;6.26;100.00
40954;BME280;26686;50.130;8.710;2023-12-20T04:32:52;100121.22;;;6.26;100.00
40954;BME280;26686;50.130;8.710;2023-12-20T04:37:53;100122.09;;;6.26;100.00
40954;BME280;26686;50.130;8.710;2023-12-20T04:42:55;100134.16;;;6.30;100.00
40954;BME280;26686;50.130;8.710;2023-12-20T04:47:56;100128.50;;;6.36;100.00
40954;BME280;26686;50.130;8.710;2023-12-20T04:52:58;100105.44;;;6.11;100.00
40954;BME280;26686;50.130;8.710;2023-12-20T04:57:59;100133.59;;;6.25;100.00
40954;BME280;26686;50.130;8.710;2023-12-20T05:03:01;100140.50;;;6.28;100.00
40954;BME280;26686;50.130;8.710;2023-12-20T05:08:02;100154.16;;;6.34;100.00
40954;BME280;26686;50.130;8.710;2023-12-20T05:13:04;100160.75;;;6.42;100.00
40954;BME280;26686;50.130;8.710;2023-12-20T05:18:06;100184.44;;;6.43;100.00
40954;BME280;26686;50.130;8.710;2023-12-20T05:23:09;100179.09;;;6.30;100.00
40954;BME280;26686;50.130;8.710;2023-12-20T05:28:12;100173.94;;;6.14;100.00
40954;BME280;26686;50.130;8.710;2023-12-20T05:33:14;100173.25;;;6.25;100.00
40954;BME280;26686;50.130;8.710;2023-12-20T05:38:15;100184.94;;;6.35;100.00
40954;BME280;26686;50.130;8.710;2023-12-20T05:43:17;100189.94;;;6.40;100.00
40954;BME280;26686;50.130;8.710;2023-12-20T05:48:19;100181.38;;;6.36;100.00
40954;BME280;26686;50.130;8.710;2023-12-20T05:53:20;100186.47;;;6.40;100.00
40954;BME280;26686;50.130;8.710;2023-12-20T05:58:24;100178.53;;;6.40;100.00
40954;BME280;26686;50.130;8.710;2023-12-20T06:03:25;100187.84;;;6.45;100.00
40954;BME280;26686;50.130;8.710;2023-12-20T06:08:27;100192.28;;;6.45;100.00
40954;BME280;26686;50.130;8.710;2023-12-20T06:13:28;100201.63;;;6.50;100.00
40954;BME280;26686;50.130;8.710;2023-12-20T06:18:29;100215.69;;;6.51;100.00
40954;BME280;26686;50.130;8.710;2023-12-20T06:23:31;100223.09;;;6.46;100.00
40954;BME280;26686;50.130;8.710;2023-12-20T06:28:34;100219.88;;;6.41;100.00
40954;BME280;26686;50.130;8.710;2023-12-20T06:33:37;100223.28;;;6.43;99.25
40954;BME280;26686;50.130;8.710;2023-12-20T06:38:38;100199.78;;;6.38;98.44
40954;BME280;26686;50.130;8.710;2023-12-20T06:43:40;100211.50;;;6.34;97.68
40954;BME280;26686;50.130;8.710;2023-12-20T06:48:50;100218.38;;;6.36;97.86
40954;BME280;26686;50.130;8.710;2023-12-20T06:53:52;100183.66;;;6.14;97.87
40954;BME280;26686;50.130;8.710;2023-12-20T06:58:53;100216.00;;;6.32;97.54
40954;BME280;26686;50.130;8.710;2023-12-20T07:03:55;100223.66;;;6.36;97.95
40954;BME280;26686;50.130;8.710;2023-12-20T07:08:57;100226.84;;;6.42;97.62
40954;BME280;26686;50.130;8.710;2023-12-20T07:13:59;100243.38;;;6.45;99.52
40954;BME280;26686;50.130;8.710;2023-12-20T07:19:00;100237.63;;;6.39;95.45
40954;BME280;26686;50.130;8.710;2023-12-20T07:24:04;100253.09;;;6.45;96.52
40954;BME280;26686;50.130;8.710;2023-12-20T07:29:05;100251.41;;;6.44;96.53
40954;BME280;26686;50.130;8.710;2023-12-20T07:34:08;100257.47;;;6.46;95.45
40954;BME280;26686;50.130;8.710;2023-12-20T07:39:09;100238.03;;;6.32;96.48
40954;BME280;26686;50.130;8.710;2023-12-20T07:44:11;100255.41;;;6.36;95.96
40954;BME280;26686;50.130;8.710;2023-12-20T07:49:13;100245.19;;;6.30;95.47
40954;BME280;26686;50.130;8.710;2023-12-20T07:54:16;100252.66;;;6.38;95.28
40954;BME280;26686;50.130;8.710;2023-12-20T07:59:17;100255.56;;;6.33;93.94
40954;BME280;26686;50.130;8.710;2023-12-20T08:04:32;100259.81;;;6.36;93.36
40954;BME280;26686;50.130;8.710;2023-12-20T08:09:34;100263.13;;;6.40;93.34
40954;BME280;26686;50.130;8.710;2023-12-20T08:14:37;100269.75;;;6.32;93.09
40954;BME280;26686;50.130;8.710;2023-12-20T08:19:39;100261.13;;;6.29;92.81
40954;BME280;26686;50.130;8.710;2023-12-20T08:24:41;100265.97;;;6.36;93.37
40954;BME280;26686;50.130;8.710;2023-12-20T08:29:44;100265.59;;;6.43;93.01
40954;BME280;26686;50.130;8.710;2023-12-20T08:34:47;100262.94;;;6.43;92.55
40954;BME280;26686;50.130;8.710;2023-12-20T08:39:49;100270.38;;;6.36;93.26
40954;BME280;26686;50.130;8.710;2023-12-20T08:44:50;100270.69;;;6.46;92.62
40954;BME280;26686;50.130;8.710;2023-12-20T08:49:52;100250.84;;;6.24;92.47
40954;BME280;26686;50.130;8.710;2023-12-20T08:54:58;100266.72;;;6.39;91.73
40954;BME280;26686;50.130;8.710;2023-12-20T08:59:59;100274.56;;;6.26;92.45
40954;BME280;26686;50.130;8.710;2023-12-20T09:05:02;100265.69;;;6.27;93.54
40954;BME280;26686;50.130;8.710;2023-12-20T09:10:03;100265.59;;;6.43;92.81
40954;BME280;26686;50.130;8.710;2023-12-20T09:15:05;100261.97;;;6.44;93.34
40954;BME280;26686;50.130;8.710;2023-12-20T09:20:07;100272.06;;;6.51;93.23
40954;BME280;26686;50.130;8.710;2023-12-20T09:25:10;100273.88;;;6.51;91.91
40954;BME280;26686;50.130;8.710;2023-12-20T09:30:12;100277.66;;;6.47;93.03
40954;BME280;26686;50.130;8.710;2023-12-20T09:35:25;100265.53;;;6.71;93.78
40954;BME280;26686;50.130;8.710;2023-12-20T09:40:28;100266.44;;;6.85;92.96
40954;BME280;26686;50.130;8.710;2023-12-20T09:45:31;100276.41;;;6.94;92.06
40954;BME280;26686;50.130;8.710;2023-12-20T09:50:33;100250.00;;;6.80;93.30
40954;BME280;26686;50.130;8.710;2023-12-20T09:55:36;100282.25;;;6.99;92.39
40954;BME280;26686;50.130;8.710;2023-12-20T10:00:39;100287.19;;;6.91;91.66
40954;BME280;26686;50.130;8.710;2023-12-20T10:05:42;100295.03;;;6.93;92.35
40954;BME280;26686;50.130;8.710;2023-12-20T10:10:44;100290.78;;;6.90;92.93
40954;BME280;26686;50.130;8.710;2023-12-20T10:15:49;100272.94;;;6.94;91.80
40954;BME280;26686;50.130;8.710;2023-12-20T10:20:51;100263.91;;;6.96;92.21
40954;BME280;26686;50.130;8.710;2023-12-20T10:25:56;100257.75;;;7.10;92.16
40954;BME280;26686;50.130;8.710;2023-12-20T10:31:01;100255.53;;;7.17;91.22
40954;BME280;26686;50.130;8.710;2023-12-20T10:36:03;100242.59;;;7.12;90.85
40954;BME280;26686;50.130;8.710;2023-12-20T10:41:05;100217.22;;;7.35;90.43
40954;BME280;26686;50.130;8.710;2023-12-20T10:46:07;100207.28;;;7.77;88.92
40954;BME280;26686;50.130;8.710;2023-12-20T10:51:10;100216.84;;;8.43;87.76
40954;BME280;26686;50.130;8.710;2023-12-20T10:56:17;100191.63;;;8.61;84.83
40954;BME280;26686;50.130;8.710;2023-12-20T11:01:25;100191.84;;;9.07;81.89
40954;BME280;26686;50.130;8.710;2023-12-20T11:06:43;100204.56;;;8.66;82.29
40954;BME280;26686;50.130;8.710;2023-12-20T11:17:09;100202.13;;;9.11;81.46
40954;BME280;26686;50.130;8.710;2023-12-20T11:22:11;100190.28;;;9.51;78.20
40954;BME280;26686;50.130;8.710;2023-12-20T11:27:13;100189.69;;;9.12;79.15
40954;BME280;26686;50.130;8.710;2023-12-20T11:37:30;100201.41;;;8.61;81.39
40954;BME280;26686;50.130;8.710;2023-12-20T11:42:50;100196.38;;;8.45;81.24
40954;BME280;26686;50.130;8.710;2023-12-20T11:47:53;100188.41;;;8.45;82.04
40954;BME280;26686;50.130;8.710;2023-12-20T11:52:56;100196.84;;;8.26;80.54
40954;BME280;26686;50.130;8.710;2023-12-20T11:57:58;100199.03;;;8.32;81.96
40954;BME280;26686;50.130;8.710;2023-12-20T12:02:59;100192.75;;;8.33;79.90
40954;BME280;26686;50.130;8.710;2023-12-20T12:08:03;100186.41;;;8.36;80.05
40954;BME280;26686;50.130;8.710;2023-12-20T12:13:06;100176.25;;;8.29;77.76
40954;BME280;26686;50.130;8.710;2023-12-20T12:18:08;100149.38;;;8.34;78.53
40954;BME280;26686;50.130;8.710;2023-12-20T12:23:10;100168.09;;;8.57;75.87
40954;BME280;26686;50.130;8.710;2023-12-20T12:28:11;100144.69;;;8.51;75.40
40954;BME280;26686;50.130;8.710;2023-12-20T12:33:13;100176.78;;;9.07;73.82
40954;BME280;26686;50.130;8.710;2023-12-20T12:38:14;100161.03;;;8.93;72.56
40954;BME280;26686;50.130;8.710;2023-12-20T12:43:20;100159.13;;;8.71;73.49
40954;BME280;26686;50.130;8.710;2023-12-20T12:48:21;100164.88;;;8.64;74.42
40954;BME280;26686;50.130;8.710;2023-12-20T12:53:25;100146.19;;;8.66;74.06
40954;BME280;26686;50.130;8.710;2023-12-20T12:58:27;100123.28;;;8.65;74.07
40954;BME280;26686;50.130;8.710;2023-12-20T13:03:28;100113.69;;;8.75;73.62
40954;BME280;26686;50.130;8.710;2023-12-20T13:08:32;100108.38;;;8.75;73.06
40954;BME280;26686;50.130;8.710;2023-12-20T13:13:33;100106.22;;;8.80;74.73
40954;BME280;26686;50.130;8.710;2023-12-20T13:18:35;100096.13;;;9.08;74.06
40954;BME280;26686;50.130;8.710;2023-12-20T13:23:37;100052.25;;;8.69;73.23
40954;BME280;26686;50.130;8.710;2023-12-20T13:28:41;100084.44;;;8.64;74.85
40954;BME280;26686;50.130;8.710;2023-12-20T13:33:44;100076.41;;;8.53;75.37
40954;BME280;26686;50.130;8.710;2023-12-20T13:38:46;100058.75;;;8.40;75.82
40954;BME280;26686;50.130;8.710;2023-12-20T13:43:47;100047.66;;;8.35;76.17
40954;BME280;26686;50.130;8.710;2023-12-20T13:48:49;100058.03;;;8.38;77.22
40954;BME280;26686;50.130;8.710;2023-12-20T13:53:51;100078.53;;;8.36;77.45
40954;BME280;26686;50.130;8.710;2023-12-20T13:58:54;100066.47;;;8.19;76.96
40954;BME280;26686;50.130;8.710;2023-12-20T14:03:56;100077.84;;;8.21;77.37
40954;BME280;26686;50.130;8.710;2023-12-20T14:08:58;100081.22;;;8.23;78.08
40954;BME280;26686;50.130;8.710;2023-12-20T14:14:03;100086.97;;;8.17;78.71
40954;BME280;26686;50.130;8.710;2023-12-20T14:19:05;100066.81;;;8.14;78.74
40954;BME280;26686;50.130;8.710;2023-12-20T14:24:09;100050.91;;;8.14;79.41
40954;BME280;26686;50.130;8.710;2023-12-20T14:29:10;100064.28;;;8.13;79.36
40954;BME280;26686;50.130;8.710;2023-12-20T14:34:12;100054.97;;;8.07;80.24
40954;BME280;26686;50.130;8.710;2023-12-20T14:39:20;100059.66;;;8.04;80.59
40954;BME280;26686;50.130;8.710;2023-12-20T14:44:22;100054.69;;;7.99;80.97
40954;BME280;26686;50.130;8.710;2023-12-20T14:49:25;100043.16;;;8.00;81.25
40954;BME280;26686;50.130;8.710;2023-12-20T14:54:28;100034.75;;;8.06;80.59
40954;BME280;26686;50.130;8.710;2023-12-20T14:59:30;100051.41;;;7.95;81.54
40954;BME280;26686;50.130;8.710;2023-12-20T15:04:32;100063.31;;;7.90;81.12
40954;BME280;26686;50.130;8.710;2023-12-20T15:09:34;100053.16;;;7.84;80.99
40954;BME280;26686;50.130;8.710;2023-12-20T15:14:35;100051.69;;;7.79;81.12
40954;BME280;26686;50.130;8.710;2023-12-20T15:19:37;100061.13;;;7.84;81.20
40954;BME280;26686;50.130;8.710;2023-12-20T15:24:39;100063.81;;;7.95;81.79
40954;BME280;26686;50.130;8.710;2023-12-20T15:29:42;100051.03;;;7.89;81.83
40954;BME280;26686;50.130;8.710;2023-12-20T15:34:45;100047.66;;;7.87;81.57
40954;BME280;26686;50.130;8.710;2023-12-20T15:39:48;100044.03;;;7.88;82.16
40954;BME280;26686;50.130;8.710;2023-12-20T15:44:49;100030.59;;;7.78;82.16
40954;BME280;26686;50.130;8.710;2023-12-20T15:49:51;100033.88;;;7.82;82.81
40954;BME280;26686;50.130;8.710;2023-12-20T15:54:52;100036.63;;;7.80;82.30
40954;BME280;26686;50.130;8.710;2023-12-20T15:59:54;100032.28;;;7.79;82.53
40954;BME280;26686;50.130;8.710;2023-12-20T16:04:56;100031.31;;;7.80;83.02
40954;BME280;26686;50.130;8.710;2023-12-20T16:09:57;100039.28;;;7.80;82.67
40954;BME280;26686;50.130;8.710;2023-12-20T16:14:59;100040.22;;;7.79;82.95
40954;BME280;26686;50.130;8.710;2023-12-20T16:20:02;100049.25;;;7.76;83.00
40954;BME280;26686;50.130;8.710;2023-12-20T16:25:04;100040.56;;;7.74;83.13
40954;BME280;26686;50.130;8.710;2023-12-20T16:30:08;100036.91;;;7.64;83.38
40954;BME280;26686;50.130;8.710;2023-12-20T16:35:10;100044.31;;;7.59;83.93
40954;BME280;26686;50.130;8.710;2023-12-20T16:40:13;100048.13;;;7.55;84.13
40954;BME280;26686;50.130;8.710;2023-12-20T16:45:14;100047.00;;;7.46;84.40
40954;BME280;26686;50.130;8.710;2023-12-20T16:50:16;100055.13;;;7.56;84.36
40954;BME280;26686;50.130;8.710;2023-12-20T16:55:19;100048.34;;;7.52;85.26
40954;BME280;26686;50.130;8.710;2023-12-20T17:00:21;100047.91;;;7.58;84.90
40954;BME280;26686;50.130;8.710;2023-12-20T17:05:24;100046.97;;;7.59;85.29
40954;BME280;26686;50.130;8.710;2023-12-20T17:10:25;100034.38;;;7.50;85.56
40954;BME280;26686;50.130;8.710;2023-12-20T17:15:27;100035.66;;;7.57;85.53
40954;BME280;26686;50.130;8.710;2023-12-20T17:20:28;100033.28;;;7.65;85.76
40954;BME280;26686;50.130;8.710;2023-12-20T17:25:30;100039.47;;;7.53;86.17
40954;BME280;26686;50.130;8.710;2023-12-20T17:30:32;100048.34;;;7.52;86.13
40954;BME280;26686;50.130;8.710;2023-12-20T17:35:33;100047.94;;;7.45;86.32
40954;BME280;26686;50.130;8.710;2023-12-20T17:40:35;100040.44;;;7.39;86.96
40954;BME280;26686;50.130;8.710;2023-12-20T17:45:41;100049.22;;;7.39;87.25
40954;BME280;26686;50.130;8.710;2023-12-20T17:50:43;100038.75;;;7.38;87.30
40954;BME280;26686;50.130;8.710;2023-12-20T17:55:45;100053.34;;;7.43;87.93
40954;BME280;26686;50.130;8.710;2023-12-20T18:00:46;100029.53;;;7.43;87.30
40954;BME280;26686;50.130;8.710;2023-12-20T18:05:49;100024.00;;;7.47;87.72
40954;BME280;26686;50.130;8.710;2023-12-20T18:10:50;100019.66;;;7.46;87.68
40954;BME280;26686;50.130;8.710;2023-12-20T18:15:54;100008.44;;;7.42;88.29
40954;BME280;26686;50.130;8.710;2023-12-20T18:20:55;100010.66;;;7.35;89.37
40954;BME280;26686;50.130;8.710;2023-12-20T18:25:58;100007.69;;;7.40;89.87
40954;BME280;26686;50.130;8.710;2023-12-20T18:31:01;100010.22;;;7.41;90.63
40954;BME280;26686;50.130;8.710;2023-12-20T18:36:04;100003.38;;;7.39;91.20
40954;BME280;26686;50.130;8.710;2023-12-20T18:41:06;99998.19;;;7.37;92.21
40954;BME280;26686;50.130;8.710;2023-12-20T18:46:08;99997.09;;;7.40;92.86
40954;BME280;26686;50.130;8.710;2023-12-20T18:51:10;99994.56;;;7.38;92.77
40954;BME280;26686;50.130;8.710;2023-12-20T18:56:12;99988.31;;;7.39;93.59
40954;BME280;26686;50.130;8.710;2023-12-20T19:01:13;99983.75;;;7.41;94.13
40954;BME280;26686;50.130;8.710;2023-12-20T19:06:17;99984.63;;;7.42;94.82
40954;BME280;26686;50.130;8.710;2023-12-20T19:11:20;99988.00;;;7.44;94.88
40954;BME280;26686;50.130;8.710;2023-12-20T19:16:24;99971.88;;;7.47;94.56
40954;BME280;26686;50.130;8.710;2023-12-20T19:21:26;99969.13;;;7.49;94.58
40954;BME280;26686;50.130;8.710;2023-12-20T19:26:28;99950.91;;;7.44;94.78
40954;BME280;26686;50.130;8.710;2023-12-20T19:31:30;99932.50;;;7.42;95.08
40954;BME280;26686;50.130;8.710;2023-12-20T19:36:34;99929.47;;;7.23;95.07
40954;BME280;26686;50.130;8.710;2023-12-20T19:41:37;99949.53;;;7.38;95.99
40954;BME280;26686;50.130;8.710;2023-12-20T19:46:39;99955.81;;;7.37;96.87
40954;BME280;26686;50.130;8.710;2023-12-20T19:51:41;99945.00;;;7.40;98.20
40954;BME280;26686;50.130;8.710;2023-12-20T19:56:44;99937.06;;;7.40;98.67
40954;BME280;26686;50.130;8.710;2023-12-20T20:01:47;99930.50;;;7.33;98.70
40954;BME280;26686;50.130;8.710;2023-12-20T20:06:49;99925.94;;;7.35;99.62
40954;BME280;26686;50.130;8.710;2023-12-20T20:11:53;99937.72;;;7.31;100.00
40954;BME280;26686;50.130;8.710;2023-12-20T20:16:55;99927.84;;;7.33;100.00
40954;BME280;26686;50.130;8.710;2023-12-20T20:21:57;99900.56;;;7.33;100.00
40954;BME280;26686;50.130;8.710;2023-12-20T20:26:59;99894.16;;;7.35;100.00
40954;BME280;26686;50.130;8.710;2023-12-20T20:32:03;99894.16;;;7.35;100.00
40954;BME280;26686;50.130;8.710;2023-12-20T20:37:06;99876.84;;;7.31;100.00
40954;BME280;26686;50.130;8.710;2023-12-20T20:42:08;99862.22;;;7.25;100.00
40954;BME280;26686;50.130;8.710;2023-12-20T20:47:09;99877.09;;;7.39;100.00
40954;BME280;26686;50.130;8.710;2023-12-20T20:52:11;99862.69;;;7.43;100.00
40954;BME280;26686;50.130;8.710;2023-12-20T20:57:12;99855.09;;;7.39;100.00
40954;BME280;26686;50.130;8.710;2023-12-20T21:02:14;99854.09;;;7.40;100.00
40954;BME280;26686;50.130;8.710;2023-12-20T21:07:17;99808.22;;;7.28;100.00
40954;BME280;26686;50.130;8.710;2023-12-20T21:12:20;99823.41;;;7.37;100.00
40954;BME280;26686;50.130;8.710;2023-12-20T21:17:21;99814.72;;;7.35;100.00
40954;BME280;26686;50.130;8.710;2023-12-20T21:22:23;99811.34;;;7.33;100.00
40954;BME280;26686;50.130;8.710;2023-12-20T21:27:25;99805.47;;;7.30;100.00
40954;BME280;26686;50.130;8.710;2023-12-20T21:32:26;99801.47;;;7.35;100.00
40954;BME280;26686;50.130;8.710;2023-12-20T21:37:27;99799.59;;;7.37;100.00
40954;BME280;26686;50.130;8.710;2023-12-20T21:42:30;99790.41;;;7.30;100.00
40954;BME280;26686;50.130;8.710;2023-12-20T21:47:31;99787.19;;;7.38;100.00
40954;BME280;26686;50.130;8.710;2023-12-20T21:52:33;99777.66;;;7.35;100.00
40954;BME280;26686;50.130;8.710;2023-12-20T21:57:34;99762.41;;;7.39;100.00
40954;BME280;26686;50.130;8.710;2023-12-20T22:02:36;99754.81;;;7.34;100.00
40954;BME280;26686;50.130;8.710;2023-12-20T22:07:38;99756.25;;;7.38;100.00
40954;BME280;26686;50.130;8.710;2023-12-20T22:12:40;99754.28;;;7.29;100.00
40954;BME280;26686;50.130;8.710;2023-12-20T22:17:41;99749.75;;;7.31;100.00
40954;BME280;26686;50.130;8.710;2023-12-20T22:22:43;99735.75;;;7.29;100.00
40954;BME280;26686;50.130;8.710;2023-12-20T22:27:45;99744.94;;;7.36;100.00
40954;BME280;26686;50.130;8.710;2023-12-20T22:32:47;99729.03;;;7.36;100.00
40954;BME280;26686;50.130;8.710;2023-12-20T22:37:49;99715.81;;;7.36;100.00
40954;BME280;26686;50.130;8.710;2023-12-20T22:42:50;99712.91;;;7.28;100.00
40954;BME280;26686;50.130;8.710;2023-12-20T22:47:52;99694.03;;;7.08;100.00
40954;BME280;26686;50.130;8.710;2023-12-20T22:52:53;99705.41;;;7.22;100.00
40954;BME280;26686;50.130;8.710;2023-12-20T22:57:55;99682.63;;;7.08;100.00
40954;BME280;26686;50.130;8.710;2023-12-20T23:02:57;99703.28;;;7.27;100.00
40954;BME280;26686;50.130;8.710;2023-12-20T23:07:59;99699.16;;;7.23;100.00
40954;BME280;26686;50.130;8.710;2023-12-20T23:13:00;99680.03;;;7.19;100.00
40954;BME280;26686;50.130;8.710;2023-12-20T23:18:02;99661.84;;;7.15;100.00
40954;BME280;26686;50.130;8.710;2023-12-20T23:23:04;99681.56;;;7.22;100.00
40954;BME280;26686;50.130;8.710;2023-12-20T23:28:05;99654.28;;;7.21;100.00
40954;BME280;26686;50.130;8.710;2023-12-20T23:33:08;99657.28;;;7.17;100.00
40954;BME280;26686;50.130;8.710;2023-12-20T23:38:10;99661.97;;;7.24;100.00
40954;BME280;26686;50.130;8.710;2023-12-20T23:43:11;99660.38;;;7.11;100.00
40954;BME280;26686;50.130;8.710;2023-12-20T23:48:14;99674.38;;;7.24;100.00
40954;BME280;26686;50.130;8.710;2023-12-20T23:53:16;99641.88;;;7.22;100.00
40954;BME280;26686;50.130;8.710;2023-12-20T23:58:18;99634.31;;;7.29;100.00
